createdAt,value
2019-05-10T00:01:51.737Z,4.77
2019-05-10T00:04:38.143Z,5.10
2019-05-10T00:07:25.230Z,5.67
2019-05-10T00:09:52.984Z,5.47
2019-05-10T00:12:32.357Z,5.10
2019-05-10T00:15:00.939Z,5.23
2019-05-10T00:17:29.381Z,5.93
2019-05-10T00:19:57.631Z,5.73
2019-05-10T00:22:25.928Z,5.67
2019-05-10T00:25:03.759Z,6.23
2019-05-10T00:27:24.839Z,5.20
2019-05-10T00:29:53.319Z,5.43
2019-05-10T00:32:22.066Z,5.13
2019-05-10T00:34:50.825Z,6.07
2019-05-10T00:37:19.309Z,5.77
2019-05-10T00:39:47.834Z,6.30
2019-05-10T00:42:15.995Z,6.63
2019-05-10T00:44:44.257Z,5.87
2019-05-10T00:47:12.900Z,5.57
2019-05-10T00:49:41.497Z,6.37
2019-05-10T00:52:10.082Z,6.83
2019-05-10T00:54:39.016Z,5.77
2019-05-10T00:57:07.182Z,5.63
2019-05-10T00:59:35.446Z,5.60
2019-05-10T01:02:03.572Z,5.50
2019-05-10T01:04:31.962Z,5.83
2019-05-10T01:07:00.401Z,5.90
2019-05-10T01:09:28.547Z,5.83
2019-05-10T01:11:56.695Z,5.77
2019-05-10T01:14:25.150Z,6.40
2019-05-10T01:16:53.341Z,6.17
2019-05-10T01:19:21.856Z,6.30
2019-05-10T01:21:50.029Z,6.00
2019-05-10T01:24:18.162Z,6.03
2019-05-10T01:26:46.708Z,6.50
2019-05-10T01:29:14.862Z,6.00
2019-05-10T01:31:43.383Z,6.13
2019-05-10T01:34:11.615Z,6.50
2019-05-10T01:36:39.743Z,7.80
2019-05-10T01:39:07.920Z,7.07
2019-05-10T01:41:36.372Z,7.27
2019-05-10T01:44:04.544Z,8.23
2019-05-10T01:46:33.117Z,8.67
2019-05-10T01:49:01.947Z,9.00
2019-05-10T01:51:30.108Z,10.23
2019-05-10T01:53:59.032Z,9.93
2019-05-10T01:56:27.225Z,10.37
2019-05-10T01:58:55.993Z,10.30
2019-05-10T02:01:24.474Z,10.57
2019-05-10T02:03:52.914Z,11.23
2019-05-10T02:06:21.652Z,9.80
2019-05-10T02:08:49.820Z,10.70
2019-05-10T02:11:18.064Z,10.97
2019-05-10T02:13:52.555Z,10.67
2019-05-10T02:16:21.084Z,10.77
2019-05-10T02:18:49.320Z,10.80
2019-05-10T02:21:18.469Z,11.57
2019-05-10T02:23:47.156Z,11.33
2019-05-10T02:26:15.313Z,11.47
2019-05-10T02:28:43.428Z,12.57
2019-05-10T02:31:11.768Z,11.93
2019-05-10T02:33:41.297Z,12.17
2019-05-10T02:36:09.828Z,12.33
2019-05-10T02:38:37.985Z,12.13
2019-05-10T02:41:06.210Z,12.40
2019-05-10T02:43:34.859Z,12.60
2019-05-10T02:46:02.959Z,13.30
2019-05-10T02:48:31.397Z,13.00
2019-05-10T02:50:59.841Z,13.77
2019-05-10T02:53:28.521Z,13.10
2019-05-10T02:55:57.424Z,12.67
2019-05-10T02:58:26.229Z,13.47
2019-05-10T03:00:56.767Z,14.47
2019-05-10T03:03:29.817Z,13.63
2019-05-10T03:06:01.848Z,12.80
2019-05-10T03:08:46.870Z,15.13
2019-05-10T03:11:15.917Z,13.70
2019-05-10T03:13:48.544Z,14.83
2019-05-10T03:16:20.813Z,14.30
2019-05-10T03:18:51.100Z,15.43
2019-05-10T03:21:20.986Z,14.60
2019-05-10T03:23:50.149Z,15.17
2019-05-10T03:26:18.615Z,15.97
2019-05-10T03:28:47.025Z,15.23
2019-05-10T03:31:15.296Z,16.37
2019-05-10T03:33:43.606Z,16.20
2019-05-10T03:36:12.277Z,16.13
2019-05-10T03:38:40.951Z,16.20
2019-05-10T03:41:09.097Z,16.27
2019-05-10T03:43:37.812Z,16.27
2019-05-10T03:46:06.036Z,15.87
2019-05-10T03:48:34.902Z,17.10
2019-05-10T03:51:03.303Z,16.03
2019-05-10T03:53:31.416Z,18.07
2019-05-10T03:56:00.128Z,17.43
2019-05-10T03:58:28.241Z,18.00
2019-05-10T04:00:56.362Z,16.83
2019-05-10T04:03:24.564Z,16.97
2019-05-10T04:05:52.752Z,17.83
2019-05-10T04:08:21.134Z,17.93
2019-05-10T04:10:49.346Z,17.50
2019-05-10T04:13:17.493Z,17.50
2019-05-10T04:15:46.039Z,17.20
2019-05-10T04:18:14.252Z,17.17
2019-05-10T04:20:42.883Z,15.30
2019-05-10T04:23:11.805Z,17.57
2019-05-10T04:25:40.569Z,15.33
2019-05-10T04:28:08.907Z,14.73
2019-05-10T04:30:37.059Z,14.10
2019-05-10T04:33:05.416Z,13.20
2019-05-10T04:35:33.909Z,12.53
2019-05-10T04:38:02.185Z,13.00
2019-05-10T04:40:30.718Z,12.10
2019-05-10T04:42:58.898Z,13.33
2019-05-10T04:45:27.137Z,13.90
2019-05-10T04:47:55.315Z,13.30
2019-05-10T04:50:23.534Z,12.97
2019-05-10T04:52:52.119Z,12.20
2019-05-10T04:55:20.272Z,14.20
2019-05-10T04:57:51.090Z,12.93
2019-05-10T05:00:20.245Z,12.30
2019-05-10T05:02:48.477Z,12.60
2019-05-10T05:05:17.516Z,12.50
2019-05-10T05:07:45.726Z,13.40
2019-05-10T05:10:13.862Z,13.87
2019-05-10T05:12:42.102Z,11.90
2019-05-10T05:15:10.590Z,13.60
2019-05-10T05:17:39.045Z,13.17
2019-05-10T05:20:07.318Z,14.03
2019-05-10T05:22:35.767Z,13.03
2019-05-10T05:25:04.313Z,13.30
2019-05-10T05:27:32.914Z,13.17
2019-05-10T05:30:01.099Z,14.67
2019-05-10T05:32:29.266Z,12.73
2019-05-10T05:34:57.750Z,13.07
2019-05-10T05:37:26.000Z,13.13
2019-05-10T05:39:54.690Z,14.23
2019-05-10T05:42:28.031Z,13.23
2019-05-10T05:44:55.149Z,12.57
2019-05-10T05:47:23.778Z,12.57
2019-05-10T05:49:52.217Z,14.37
2019-05-10T05:52:20.380Z,12.90
2019-05-10T05:54:52.826Z,13.77
2019-05-10T05:57:22.222Z,13.07
2019-05-10T05:59:49.572Z,13.20
2019-05-10T06:02:18.075Z,13.60
2019-05-10T06:04:47.672Z,13.07
2019-05-10T06:07:16.753Z,14.57
2019-05-10T06:09:45.202Z,12.07
2019-05-10T06:12:14.267Z,12.67
2019-05-10T06:14:52.413Z,13.40
2019-05-10T06:17:23.639Z,12.33
2019-05-10T06:19:51.118Z,13.23
2019-05-10T06:22:19.254Z,13.33
2019-05-10T06:24:52.445Z,13.60
2019-05-10T06:27:18.217Z,12.63
2019-05-10T06:29:46.502Z,13.23
2019-05-10T06:32:14.794Z,13.33
2019-05-10T06:34:43.273Z,12.87
2019-05-10T06:37:11.968Z,12.23
2019-05-10T06:39:40.217Z,12.07
2019-05-10T06:42:09.765Z,12.67
2019-05-10T06:44:39.732Z,13.10
2019-05-10T06:47:10.028Z,14.87
2019-05-10T06:49:41.722Z,13.13
2019-05-10T06:52:07.996Z,14.13
2019-05-10T06:54:36.182Z,14.33
2019-05-10T06:57:04.419Z,15.37
2019-05-10T06:59:33.195Z,14.13
2019-05-10T07:02:01.305Z,13.27
2019-05-10T07:04:34.317Z,12.83
2019-05-10T07:06:59.723Z,12.93
2019-05-10T07:09:28.080Z,12.60
2019-05-10T07:11:56.696Z,12.37
2019-05-10T07:14:27.113Z,12.17
2019-05-10T07:16:56.556Z,12.63
2019-05-10T07:19:28.763Z,11.23
2019-05-10T07:21:56.150Z,10.90
2019-05-10T07:24:27.025Z,9.50
2019-05-10T07:26:56.524Z,9.73
2019-05-10T07:29:30.158Z,9.30
2019-05-10T07:31:56.110Z,9.57
2019-05-10T07:34:24.765Z,10.50
2019-05-10T07:36:52.913Z,9.50
2019-05-10T07:39:21.275Z,9.80
2019-05-10T07:41:49.474Z,10.50
2019-05-10T07:44:17.971Z,7.77
2019-05-10T07:46:49.711Z,4.50
2019-05-10T07:49:16.286Z,5.10
2019-05-10T07:51:44.617Z,3.70
2019-05-10T07:54:12.965Z,1.43
2019-05-10T07:56:45.556Z,2.30
2019-05-10T07:59:16.327Z,2.20
2019-05-10T08:01:41.981Z,1.93
2019-05-10T08:04:13.026Z,2.23
2019-05-10T08:06:47.653Z,2.43
2019-05-10T08:09:10.812Z,2.20
2019-05-10T08:11:39.293Z,2.50
2019-05-10T08:14:11.054Z,2.60
2019-05-10T08:16:38.739Z,2.80
2019-05-10T08:19:07.428Z,3.27
2019-05-10T08:21:35.653Z,3.20
2019-05-10T08:24:05.674Z,4.47
2019-05-10T08:26:33.916Z,3.93
2019-05-10T08:29:02.286Z,3.60
2019-05-10T08:31:33.935Z,5.03
2019-05-10T08:34:02.216Z,4.07
2019-05-10T08:36:32.154Z,4.10
2019-05-10T08:39:09.999Z,3.80
2019-05-10T08:41:32.597Z,3.50
2019-05-10T08:44:04.552Z,4.27
2019-05-10T08:46:40.169Z,4.40
2019-05-10T08:49:02.086Z,3.83
2019-05-10T08:51:32.255Z,3.60
2019-05-10T08:54:01.749Z,3.00
2019-05-10T08:56:33.089Z,2.83
2019-05-10T08:59:03.647Z,3.37
2019-05-10T09:01:38.449Z,3.20
2019-05-10T09:04:06.613Z,3.27
2019-05-10T09:06:32.792Z,3.20
2019-05-10T09:09:01.934Z,2.97
2019-05-10T09:11:32.803Z,3.13
2019-05-10T09:14:03.242Z,3.10
2019-05-10T09:16:39.304Z,2.83
2019-05-10T09:19:02.573Z,2.80
2019-05-10T09:21:32.202Z,2.90
2019-05-10T09:24:03.411Z,3.23
2019-05-10T09:26:32.205Z,3.17
2019-05-10T09:29:01.629Z,3.03
2019-05-10T09:31:32.648Z,2.43
2019-05-10T09:34:02.417Z,3.00
2019-05-10T09:36:35.471Z,3.43
2019-05-10T09:39:03.388Z,3.27
2019-05-10T09:41:33.825Z,2.83
2019-05-10T09:44:03.045Z,2.20
2019-05-10T09:46:32.404Z,3.00
2019-05-10T09:49:13.728Z,3.30
2019-05-10T09:51:33.170Z,2.70
2019-05-10T09:54:01.821Z,2.97
2019-05-10T09:56:32.963Z,3.17
2019-05-10T09:59:00.079Z,3.17
2019-05-10T10:01:28.331Z,2.73
2019-05-10T10:03:58.357Z,2.90
2019-05-10T10:06:29.555Z,3.43
2019-05-10T10:08:57.718Z,2.83
2019-05-10T10:11:27.795Z,3.13
2019-05-10T10:13:59.192Z,3.40
2019-05-10T10:16:28.192Z,3.37
2019-05-10T10:18:56.931Z,2.93
2019-05-10T10:21:35.024Z,3.13
2019-05-10T10:24:00.007Z,2.93
2019-05-10T10:26:26.807Z,2.77
2019-05-10T10:28:57.854Z,2.40
2019-05-10T10:31:30.350Z,2.43
2019-05-10T10:34:02.618Z,2.20
2019-05-10T10:36:27.413Z,2.60
2019-05-10T10:38:56.994Z,2.40
2019-05-10T10:41:31.199Z,2.70
2019-05-10T10:43:58.356Z,2.30
2019-05-10T10:46:28.080Z,1.50
2019-05-10T10:48:56.575Z,1.70
2019-05-10T10:51:26.548Z,1.47
2019-05-10T10:53:57.972Z,1.77
2019-05-10T10:56:27.697Z,1.77
2019-05-10T10:58:58.118Z,1.60
2019-05-10T11:01:38.028Z,2.10
2019-05-10T11:03:57.027Z,2.37
2019-05-10T11:06:25.810Z,2.50
2019-05-10T11:08:54.087Z,2.00
2019-05-10T11:11:22.234Z,2.00
2019-05-10T11:13:58.639Z,1.87
2019-05-10T11:16:21.199Z,1.70
2019-05-10T11:18:51.710Z,1.80
2019-05-10T11:21:23.294Z,1.90
2019-05-10T11:23:50.327Z,2.37
2019-05-10T11:26:18.501Z,2.07
2019-05-10T11:28:47.029Z,2.00
2019-05-10T11:31:15.885Z,1.70
2019-05-10T11:33:47.378Z,1.87
2019-05-10T11:36:14.138Z,1.93
2019-05-10T11:38:46.931Z,1.93
2019-05-10T11:41:20.709Z,2.33
2019-05-10T11:43:43.503Z,2.20
2019-05-10T11:46:12.453Z,2.30
2019-05-10T11:48:42.174Z,2.77
2019-05-10T11:51:15.999Z,2.20
2019-05-10T11:53:41.666Z,1.93
2019-05-10T11:56:14.122Z,1.80
2019-05-10T11:58:49.063Z,2.40
2019-05-10T12:01:17.334Z,2.17
2019-05-10T12:03:42.423Z,2.20
2019-05-10T12:06:12.121Z,2.80
2019-05-10T12:08:41.861Z,1.67
2019-05-10T12:11:25.036Z,2.23
2019-05-10T12:13:40.895Z,2.30
2019-05-10T12:16:12.361Z,1.80
2019-05-10T12:18:46.555Z,2.23
2019-05-10T12:21:11.306Z,2.43
2019-05-10T12:23:50.022Z,1.90
2019-05-10T12:28:40.925Z,2.43
2019-05-10T12:31:15.274Z,1.97
2019-05-10T12:33:42.904Z,2.13
2019-05-10T12:36:21.576Z,2.00
2019-05-10T12:38:40.493Z,2.77
2019-05-10T12:41:09.012Z,2.50
2019-05-10T12:43:37.286Z,1.80
2019-05-10T12:46:05.418Z,1.73
2019-05-10T12:48:35.957Z,1.57
2019-05-10T12:51:11.244Z,1.90
2019-05-10T12:53:36.813Z,1.90
2019-05-10T12:56:04.576Z,1.70
2019-05-10T12:58:32.854Z,1.57
2019-05-10T13:01:01.101Z,1.80
2019-05-10T13:03:31.802Z,1.70
2019-05-10T13:05:59.362Z,1.90
2019-05-10T13:08:27.597Z,1.70
2019-05-10T13:10:55.755Z,1.93
2019-05-10T13:13:29.490Z,1.70
2019-05-10T13:15:54.415Z,1.57
2019-05-10T13:18:34.375Z,2.20
2019-05-10T13:20:53.319Z,1.67
2019-05-10T13:23:21.771Z,1.63
2019-05-10T13:25:49.891Z,1.80
2019-05-10T13:28:18.060Z,1.60
2019-05-10T13:30:46.339Z,1.80
2019-05-10T13:33:27.918Z,1.60
2019-05-10T13:35:44.951Z,2.17
2019-05-10T13:38:13.376Z,1.60
2019-05-10T13:40:45.948Z,1.23
2019-05-10T13:43:17.313Z,1.50
2019-05-10T13:45:42.711Z,1.30
2019-05-10T13:48:11.766Z,1.70
2019-05-10T13:50:39.920Z,1.60
2019-05-10T13:53:19.853Z,1.60
2019-05-10T13:55:39.297Z,1.40
2019-05-10T13:58:07.525Z,1.10
2019-05-10T14:00:36.163Z,1.10
2019-05-10T14:03:04.977Z,1.50
2019-05-10T14:05:35.214Z,1.80
2019-05-10T14:08:03.328Z,1.97
2019-05-10T14:10:32.532Z,2.03
2019-05-10T14:13:02.633Z,1.40
2019-05-10T14:15:30.676Z,1.50
2019-05-10T14:17:59.508Z,1.97
2019-05-10T14:20:27.960Z,1.57
2019-05-10T14:22:58.693Z,1.93
2019-05-10T14:25:29.366Z,1.73
2019-05-10T14:27:57.402Z,2.07
2019-05-10T14:30:26.148Z,2.13
2019-05-10T14:32:54.263Z,1.80
2019-05-10T14:35:24.361Z,1.60
2019-05-10T14:37:52.778Z,1.90
2019-05-10T14:40:27.666Z,2.10
2019-05-10T14:42:51.133Z,2.03
2019-05-10T14:45:19.352Z,1.83
2019-05-10T14:47:50.418Z,1.90
2019-05-10T14:50:19.627Z,1.60
2019-05-10T14:52:48.425Z,2.10
2019-05-10T14:55:16.645Z,1.87
2019-05-10T14:57:44.822Z,1.40
2019-05-10T15:00:13.628Z,1.83
2019-05-10T15:02:41.936Z,1.93
2019-05-10T15:05:15.628Z,2.10
2019-05-10T15:07:41.452Z,2.33
2019-05-10T15:10:10.043Z,2.37
2019-05-10T15:12:38.232Z,2.50
2019-05-10T15:15:10.111Z,2.80
2019-05-10T15:17:38.582Z,2.33
2019-05-10T15:20:06.925Z,2.07
2019-05-10T15:22:35.344Z,2.23
2019-05-10T15:25:04.019Z,1.97
2019-05-10T15:27:32.208Z,2.03
2019-05-10T15:30:05.358Z,1.90
2019-05-10T15:32:30.632Z,1.83
2019-05-10T15:35:08.244Z,1.80
2019-05-10T15:37:29.918Z,2.13
2019-05-10T15:40:00.480Z,1.83
2019-05-10T15:42:30.538Z,1.60
2019-05-10T15:44:58.696Z,2.50
2019-05-10T15:47:27.188Z,2.70
2019-05-10T15:50:00.008Z,1.83
2019-05-10T15:52:25.863Z,2.00
2019-05-10T15:54:54.079Z,2.23
2019-05-10T15:57:22.392Z,2.20
2019-05-10T15:59:56.289Z,2.20
2019-05-10T16:02:21.201Z,1.90
2019-05-10T16:04:49.424Z,2.10
2019-05-10T16:07:17.802Z,1.80
2019-05-10T16:09:50.007Z,3.03
2019-05-10T16:12:16.370Z,2.63
2019-05-10T16:14:45.695Z,2.63
2019-05-10T16:17:17.520Z,2.70
2019-05-10T16:19:44.176Z,2.17
2019-05-10T16:22:12.384Z,2.83
2019-05-10T16:24:40.784Z,2.10
2019-05-10T16:27:09.484Z,2.80
2019-05-10T16:29:40.130Z,2.23
2019-05-10T16:32:07.632Z,1.90
2019-05-10T16:34:36.377Z,2.30
2019-05-10T16:37:04.498Z,2.17
2019-05-10T16:39:32.998Z,1.80
2019-05-10T16:42:01.233Z,1.87
2019-05-10T16:44:30.309Z,1.93
2019-05-10T16:46:58.841Z,1.80
2019-05-10T16:49:27.085Z,2.13
2019-05-10T16:51:55.270Z,2.77
2019-05-10T16:54:25.371Z,2.20
2019-05-10T16:56:59.393Z,2.33
2019-05-10T16:59:24.386Z,2.53
2019-05-10T17:02:03.130Z,2.50
2019-05-10T17:04:24.586Z,2.50
2019-05-10T17:06:54.903Z,2.53
2019-05-10T17:09:23.338Z,2.57
2019-05-10T17:11:51.539Z,2.40
2019-05-10T17:14:20.243Z,2.33
2019-05-10T17:16:50.121Z,2.73
2019-05-10T17:19:18.758Z,2.33
2019-05-10T17:21:47.409Z,2.20
2019-05-10T17:24:18.723Z,2.53
2019-05-10T17:26:46.368Z,2.40
2019-05-10T17:29:14.762Z,2.13
2019-05-10T17:31:45.592Z,2.53
2019-05-10T17:34:22.163Z,2.33
2019-05-10T17:36:43.797Z,2.10
2019-05-10T17:39:12.056Z,2.67
2019-05-10T17:41:40.578Z,2.27
2019-05-10T17:44:09.138Z,2.20
2019-05-10T17:46:37.430Z,2.93
2019-05-10T17:49:06.049Z,3.80
2019-05-10T17:51:34.243Z,5.23
2019-05-10T17:54:03.742Z,2.93
2019-05-10T17:56:32.823Z,2.53
2019-05-10T17:59:05.666Z,3.53
2019-05-10T18:01:33.641Z,3.90
2019-05-10T18:04:01.756Z,3.27
2019-05-10T18:06:30.298Z,3.00
2019-05-10T18:08:58.428Z,2.70
2019-05-10T18:11:26.926Z,2.53
2019-05-10T18:13:55.905Z,3.77
2019-05-10T18:16:24.493Z,2.23
2019-05-10T18:18:52.901Z,2.30
2019-05-10T18:21:23.982Z,2.70
2019-05-10T18:23:52.584Z,2.53
2019-05-10T18:26:22.738Z,2.30
2019-05-10T18:28:51.185Z,1.87
2019-05-10T18:31:19.646Z,2.20
2019-05-10T18:33:54.242Z,1.87
2019-05-10T18:36:19.154Z,2.97
2019-05-10T18:38:47.814Z,2.33
2019-05-10T18:41:16.270Z,2.10
2019-05-10T18:43:45.282Z,2.93
2019-05-10T18:46:13.582Z,2.83
2019-05-10T18:48:42.105Z,2.03
2019-05-10T18:51:10.698Z,1.83
2019-05-10T18:53:38.906Z,1.73
2019-05-10T18:56:07.090Z,2.33
2019-05-10T18:58:35.845Z,2.13
2019-05-10T19:01:04.091Z,2.37
2019-05-10T19:03:33.502Z,2.00
2019-05-10T19:06:10.757Z,3.83
2019-05-10T19:08:34.026Z,2.90
2019-05-10T19:11:03.260Z,3.50
2019-05-10T19:13:34.437Z,2.47
2019-05-10T19:16:02.717Z,2.37
2019-05-10T19:18:30.913Z,2.53
2019-05-10T19:20:59.056Z,2.30
2019-05-10T19:23:27.206Z,2.70
2019-05-10T19:25:55.693Z,2.50
2019-05-10T19:28:26.876Z,2.50
2019-05-10T19:30:58.753Z,2.40
2019-05-10T19:33:29.764Z,2.90
2019-05-10T19:35:55.534Z,2.70
2019-05-10T19:38:23.728Z,2.33
2019-05-10T19:40:51.910Z,2.87
2019-05-10T19:43:21.563Z,2.40
2019-05-10T19:45:51.055Z,2.20
2019-05-10T19:48:20.719Z,2.40
2019-05-10T19:50:49.585Z,2.57
2019-05-10T19:53:17.818Z,3.03
2019-05-10T19:55:45.993Z,2.90
2019-05-10T19:58:14.168Z,2.83
2019-05-10T20:00:42.327Z,3.23
2019-05-10T20:03:11.473Z,2.40
2019-05-10T20:05:40.041Z,2.53
2019-05-10T20:08:08.345Z,2.20
2019-05-10T20:10:36.473Z,2.37
2019-05-10T20:13:04.751Z,2.80
2019-05-10T20:15:32.892Z,2.43
2019-05-10T20:18:01.578Z,2.53
2019-05-10T20:20:29.802Z,2.60
2019-05-10T20:22:58.525Z,3.20
2019-05-10T20:25:26.758Z,2.90
2019-05-10T20:27:54.934Z,2.43
2019-05-10T20:30:23.227Z,3.00
2019-05-10T20:32:51.972Z,2.70
2019-05-10T20:35:20.777Z,2.43
2019-05-10T20:38:01.245Z,2.40
2019-05-10T20:40:19.380Z,2.70
2019-05-10T20:42:47.635Z,3.00
2019-05-10T20:45:16.082Z,2.40
2019-05-10T20:47:44.611Z,2.87
2019-05-10T20:50:13.068Z,2.77
2019-05-10T20:52:41.852Z,3.40
2019-05-10T20:55:10.188Z,2.37
2019-05-10T20:57:38.657Z,3.40
2019-05-10T21:00:07.522Z,3.20
2019-05-10T21:02:35.962Z,2.60
2019-05-10T21:05:04.292Z,3.07
2019-05-10T21:07:32.524Z,3.73
2019-05-10T21:10:00.790Z,2.80
2019-05-10T21:12:29.214Z,2.90
2019-05-10T21:14:57.461Z,3.07
2019-05-10T21:17:26.109Z,3.50
2019-05-10T21:19:54.305Z,3.23
2019-05-10T21:22:22.518Z,2.90
2019-05-10T21:24:50.735Z,3.40
2019-05-10T21:27:18.988Z,2.53
2019-05-10T21:29:47.116Z,3.10
2019-05-10T21:32:16.164Z,3.37
2019-05-10T21:34:44.293Z,3.30
2019-05-10T21:37:12.492Z,2.67
2019-05-10T21:39:40.618Z,3.43
2019-05-10T21:42:08.890Z,3.00
2019-05-10T21:44:37.075Z,2.97
2019-05-10T21:47:05.289Z,3.07
2019-05-10T21:49:33.887Z,3.07
2019-05-10T21:52:02.161Z,3.73
2019-05-10T21:54:30.290Z,3.00
2019-05-10T21:56:58.512Z,3.47
2019-05-10T21:59:26.913Z,3.57
2019-05-10T22:01:55.663Z,2.93
2019-05-10T22:04:24.684Z,3.70
2019-05-10T22:06:52.856Z,3.43
2019-05-10T22:09:21.104Z,3.50
2019-05-10T22:11:49.735Z,3.00
2019-05-10T22:14:17.979Z,3.30
2019-05-10T22:16:46.159Z,3.17
2019-05-10T22:19:14.272Z,2.93
2019-05-10T22:21:42.855Z,3.10
2019-05-10T22:24:11.579Z,3.03
2019-05-10T22:26:39.813Z,2.93
2019-05-10T22:29:08.545Z,3.30
2019-05-10T22:31:37.011Z,3.00
2019-05-10T22:34:05.927Z,2.93
2019-05-10T22:36:34.171Z,3.43
2019-05-10T22:39:07.518Z,3.60
2019-05-10T22:41:35.132Z,3.63
2019-05-10T22:44:03.412Z,3.50
2019-05-10T22:46:32.247Z,4.80
2019-05-10T22:49:00.764Z,4.10
2019-05-10T22:51:29.006Z,4.00
2019-05-10T22:54:00.115Z,3.73
2019-05-10T22:56:28.187Z,4.20
2019-05-10T22:58:56.757Z,4.23
2019-05-10T23:01:24.917Z,3.43
2019-05-10T23:03:54.600Z,3.93
2019-05-10T23:06:23.087Z,3.73
2019-05-10T23:08:51.252Z,3.50
2019-05-10T23:11:19.908Z,3.63
2019-05-10T23:13:48.067Z,4.07
2019-05-10T23:16:16.841Z,3.03
2019-05-10T23:18:45.577Z,3.27
2019-05-10T23:21:13.778Z,3.30
2019-05-10T23:23:42.042Z,3.27
2019-05-10T23:26:10.262Z,3.80
2019-05-10T23:28:38.562Z,3.50
2019-05-10T23:31:06.807Z,4.57
2019-05-10T23:33:34.982Z,3.97
2019-05-10T23:36:03.179Z,4.00
2019-05-10T23:38:31.461Z,3.73
2019-05-10T23:40:59.848Z,3.40
2019-05-10T23:43:28.345Z,3.30
2019-05-10T23:45:56.729Z,3.03
2019-05-10T23:48:25.059Z,3.30
2019-05-10T23:50:53.302Z,3.60
2019-05-10T23:53:21.554Z,2.97
2019-05-10T23:55:50.084Z,3.27
2019-05-10T23:58:18.310Z,3.70
